X  Chiuso Dati meteorologici dell'aviazione (METAR)     EHRD Rotterdam The Hague Airport
Temperatura
6°C Temperatura
5°C Punto di rugiada
93% Umidità



Vento
19 KM/O
12 MPH
5 M/S
10 KTS



230°
SW
Condizioni attuali

Nuvole per lo più sparse Nuvole per lo più sparse
Pressione 1020.92 (hPa) - 30.15 (inHg)
Visibilità 6.2 (miglio) - 10 (km)
Aeroporto
Codice-Aeroporto EHRD

Posizione: Rotterdam The Hague Airport
Distanza: 16 (km)

Metar:
EHRD 181055Z AUTO 23010KT 200V270 9999 SCT018 06/05 Q1021 NOSIG

Ore: 18-01-2021 11:55 CET